Flight Track Log - Related Links

Times and Time Zones

All times are in EDT time to prevent confusion due to time zone crossing. See the UPS1219 flight status page for this flight to view local times or setup timezone preferences in your user account.

Time Position Orientation Groundspeed Altitude Reporting Facility
EDT Latitude Longitude Course Direction KTS MPH feet Rate Location/Type
Fri 10:58:42 PM 38.9210 -77.4790 216° Southwest 178 205 2,800  Level FlightAware ADS-B
Fri 10:58:54 PM 38.9140 -77.4850 214° Southwest 186 214 2,900 419 Climbing FlightAware ADS-B
Fri 10:59:25 PM 38.8890 -77.5100 218° Southwest 237 273 3,100 1,448 Climbing FlightAware ADS-B
Fri 10:59:52 PM 38.8620 -77.5370 218° Southwest 262 302 4,300 3,214 Climbing FlightAware ADS-B
Fri 11:00:21 PM 38.8390 -77.5600 218° Southwest 262 302 6,100 4,227 Climbing FlightAware ADS-B
Fri 11:00:36 PM 38.8300 -77.5870 247° West 264 304 7,400 4,255 Climbing FlightAware ADS-B
Fri 11:01:16 PM 38.8310 -77.6510 271° West 280 322 10,000 2,651 Climbing FlightAware ADS-B
Fri 11:02:02 PM 38.8350 -77.7430 273° West 362 417 11,200 2,096 Climbing FlightAware ADS-B
Fri 11:02:39 PM 38.8380 -77.8130 273° West 374 430 12,900 3,143 Climbing FlightAware ADS-B
Fri 11:03:26 PM 38.8430 -77.9190 273° West 388 447 15,600 3,318 Climbing FlightAware ADS-B
Fri 11:04:04 PM 38.8480 -78.0170 274° West 403 464 17,600 2,927 Climbing FlightAware ADS-B
Fri 11:04:48 PM 38.8520 -78.1270 273° West 422 486 19,600 2,429 Climbing FlightAware ADS-B
Fri 11:05:28 PM 38.8550 -78.2270 272° West 440 506 21,000 2,143 Climbing FlightAware ADS-B
Fri 11:06:12 PM 38.8540 -78.3430 269° West 455 524 22,600 2,250 Climbing FlightAware ADS-B
Fri 11:06:56 PM 38.8500 -78.4630 268° West 463 533 24,300 2,211 Climbing FlightAware ADS-B
Fri 11:07:28 PM 38.8380 -78.5540 260° West 474 545 25,400 2,314 Climbing FlightAware ADS-B
Fri 11:08:06 PM 38.8230 -78.6560 259° West 472 543 27,000 2,541 Climbing FlightAware ADS-B
Fri 11:08:53 PM 38.8000 -78.7870 257° West 468 539 29,000 2,634 Climbing FlightAware ADS-B
Fri 11:09:28 PM 38.7820 -78.8770 256° West 461 531 30,600 2,560 Climbing FlightAware ADS-B
Fri 11:10:08 PM 38.7620 -78.9820 256° West 453 521 32,200 2,118 Climbing FlightAware ADS-B
Fri 11:10:53 PM 38.7400 -79.0940 256° West 451 519 33,600 1,350 Climbing FlightAware ADS-B
Fri 11:11:28 PM 38.7210 -79.1900 256° West 454 522 34,000 343 Climbing FlightAware ADS-B
Fri 11:12:03 PM 38.7030 -79.2810 256° West 449 517 34,000  Level FlightAware ADS-B
Fri 11:12:48 PM 38.6800 -79.3960 256° West 442 509 34,000  Level FlightAware ADS-B
Fri 11:13:44 PM 38.6550 -79.5180 255° West 447 514 34,000  Level FlightAware ADS-B
Fri 11:14:23 PM 38.6360 -79.6150 256° West 450 518 34,000  Level FlightAware ADS-B
Fri 11:15:08 PM 38.6090 -79.7470 255° West 448 516 34,000  Level FlightAware ADS-B
Fri 11:15:46 PM 38.5890 -79.8510 256° West 442 509 34,000  Level FlightAware ADS-B
Fri 11:16:25 PM 38.5680 -79.9520 255° West 438 504 34,000  Level FlightAware ADS-B
Fri 11:17:10 PM 38.5450 -80.0620 255° West 438 504 34,000  Level FlightAware ADS-B
Fri 11:17:55 PM 38.5230 -80.1720 256° West 441 507 34,000  Level FlightAware ADS-B
Fri 11:18:35 PM 38.5080 -80.2450 255° West 442 509 34,000  Level FlightAware ADS-B
Fri 11:19:15 PM 38.4800 -80.3770 255° West 447 514 34,000  Level FlightAware ADS-B
Fri 11:19:59 PM 38.4570 -80.4890 255° West 448 516 34,000  Level FlightAware ADS-B
Fri 11:20:56 PM 38.4280 -80.6250 255° West 450 518 34,000  Level FlightAware ADS-B
Fri 11:21:36 PM 38.4100 -80.7130 255° West 450 518 34,000  Level FlightAware ADS-B
Fri 11:22:16 PM 38.4010 -80.8430 265° West 445 512 34,000  Level FlightAware ADS-B
Fri 11:23:01 PM 38.3870 -80.9600 261° West 442 509 34,000  Level FlightAware ADS-B
Fri 11:23:45 PM 38.3720 -81.0750 261° West 442 509 34,000  Level FlightAware ADS-B
Fri 11:24:27 PM 38.3600 -81.1780 262° West 443 510 34,000  Level FlightAware ADS-B
Fri 11:25:06 PM 38.3460 -81.2820 260° West 446 513 34,000  Level FlightAware ADS-B
Fri 11:25:42 PM 38.3340 -81.3780 261° West 448 516 34,000  Level FlightAware ADS-B
Fri 11:26:24 PM 38.3200 -81.4820 260° West 451 519 34,000  Level FlightAware ADS-B
Fri 11:27:08 PM 38.3050 -81.6000 261° West 454 522 34,000  Level FlightAware ADS-B
Fri 11:27:32 PM 38.2962 -81.6636 260° West 455 524 34,000  Level FlightAware ADS-B
Fri 11:28:13 PM 38.2818 -81.7746 261° West 455 524 34,000  Level FlightAware ADS-B
Fri 11:28:59 PM 38.2654 -81.8958 260° West 455 524 34,000  Level FlightAware ADS-B
Fri 11:29:30 PM 38.2548 -81.9752 260° West 457 526 34,000  Level FlightAware ADS-B
Fri 11:30:38 PM 38.2303 -82.1567 260° West 450 518 34,000  Level FlightAware ADS-B
Fri 11:31:09 PM 38.2194 -82.2371 260° West 447 514 34,000  Level FlightAware ADS-B
Fri 11:31:53 PM 38.2038 -82.3508 260° West 447 514 34,000  Level FlightAware ADS-B
Fri 11:32:24 PM 38.1928 -82.4286 260° West 450 518 34,000  Level FlightAware ADS-B
Fri 11:32:54 PM 38.1817 -82.5093 260° West 451 519 34,000  Level FlightAware ADS-B
Fri 11:33:24 PM 38.1707 -82.5874 260° West 449 517 34,000  Level FlightAware ADS-B
Fri 11:33:58 PM 38.1586 -82.6754 260° West 448 516 34,000  Level FlightAware ADS-B
Fri 11:34:46 PM 38.1416 -82.7973 260° West 449 517 34,000  Level FlightAware ADS-B
Fri 11:35:16 PM 38.1304 -82.8753 260° West 451 519 34,000  Level FlightAware ADS-B
Fri 11:36:05 PM 38.1120 -83.0010 259° West 453 521 34,000  Level FlightAware ADS-B
Fri 11:36:20 PM 38.1057 -83.0450 260° West 452 520 34,000  Level FlightAware ADS-B
Fri 11:37:25 PM 38.0810 -83.2150 260° West 452 520 34,000  Level FlightAware ADS-B
Fri 11:38:02 PM 38.0690 -83.2990 260° West 451 519 34,000 -174 Level FlightAware ADS-B
Fri 11:38:34 PM 38.0560 -83.3890 260° West 452 520 33,800 -404 Descending FlightAware ADS-B
Fri 11:39:31 PM 38.0350 -83.5290 259° West 450 518 33,400 -970 Descending FlightAware ADS-B
Fri 11:40:13 PM 38.0174 -83.6483 259° West 436 502 32,200 -1,417 Descending FlightAware ADS-B
Fri 11:40:43 PM 38.0059 -83.7233 259° West 433 498 31,700 -984 Descending FlightAware ADS-B
Fri 11:41:14 PM 37.9945 -83.8000 259° West 429 494 31,200 -971 Descending FlightAware ADS-B
Fri 11:41:51 PM 37.9809 -83.8906 259° West 429 494 30,600 -2,289 Descending FlightAware ADS-B
Fri 11:42:51 PM 37.9587 -84.0365 259° West 420 483 27,500 -3,255 Descending FlightAware ADS-B
Fri 11:43:25 PM 37.9451 -84.1217 259° West 448 516 25,500 -3,403 Descending FlightAware ADS-B
Fri 11:43:58 PM 37.9315 -84.2103 259° West 450 518 23,700 -2,822 Descending FlightAware ADS-B
Fri 11:47:21 PM 37.8560 -84.6850 259° West 393 452 14,400 -2,688 Descending FlightAware ADS-B
Fri 11:48:08 PM 37.8380 -84.8010 259° West 379 436 12,500 -2,278 Descending FlightAware ADS-B
Fri 11:48:40 PM 37.8260 -84.8700 258° West 369 425 11,400 -1,047 Descending FlightAware ADS-B
Fri 11:49:34 PM 37.8110 -84.9590 258° West 356 410 11,000 -211 Descending FlightAware ADS-B
Fri 11:50:34 PM 37.7930 -85.0630 258° West 356 410 11,000 -652 Level FlightAware ADS-B
Fri 11:51:06 PM 37.7880 -85.1220 264° West 281 323 10,000 -1,053 Descending FlightAware ADS-B
Fri 11:51:31 PM 37.7860 -85.1570 266° West 281 323 10,000 -1,333 Level FlightAware ADS-B
Fri 11:51:51 PM 37.8080 -85.1920 309° West 283 326 9,000 -2,400 Descending FlightAware ADS-B
Fri 11:52:16 PM 37.8220 -85.2320 294° West 283 326 8,200 -1,636 Descending FlightAware ADS-B
Fri 11:52:46 PM 37.8370 -85.2730 295° West 281 323 7,500 -1,500 Descending FlightAware ADS-B
Fri 11:53:16 PM 37.8540 -85.3200 295° West 280 322 6,700 -1,500 Descending FlightAware ADS-B
Fri 11:53:46 PM 37.8710 -85.3660 295° West 271 312 6,000 -1,200 Descending FlightAware ADS-B
Fri 11:53:56 PM 37.8730 -85.3730 290° West 271 312 5,900 -1,350 Descending FlightAware ADS-B
Fri 11:54:26 PM 37.8920 -85.4260 294° West 263 303 5,100 -1,552 Descending FlightAware ADS-B
Fri 11:54:54 PM 37.9050 -85.4630 294° West 259 298 4,400 -1,500 Descending FlightAware ADS-B
Fri 11:55:06 PM 37.9090 -85.4820 285° West 254 292 4,100 -649 Descending FlightAware ADS-B
Fri 11:55:31 PM 37.9050 -85.5150 261° West 250 288 4,000 -533 Descending FlightAware ADS-B
Fri 11:55:51 PM 37.9000 -85.5440 258° West 248 285 3,700 -1,067 Descending FlightAware ADS-B
Fri 11:56:16 PM 37.8950 -85.5750 258° West 248 285 3,200 -764 Descending FlightAware ADS-B
Fri 11:56:46 PM 37.9090 -85.6160 293° West 259 298 3,000 -218 Descending FlightAware ADS-B
Fri 11:57:11 PM 37.9340 -85.6410 322° Northwest 249 287 3,000  Level FlightAware ADS-B
Fri 11:57:26 PM 37.9490 -85.6490 337° Northwest 247 284 3,000  Level FlightAware ADS-B
Fri 11:57:51 PM 37.9740 -85.6600 341° North 226 260 3,000  Level FlightAware ADS-B
Fri 11:58:21 PM 38.0040 -85.6690 347° North 211 243 3,000  Level FlightAware ADS-B
Fri 11:58:51 PM 38.0300 -85.6770 346° North 195 224 3,000 -150 Level FlightAware ADS-B
Fri 11:59:01 PM 38.0390 -85.6800 345° North 199 229 2,900 -900 Descending FlightAware ADS-B
Fri 11:59:31 PM 38.0660 -85.6900 344° North 187 215 2,400 -933 Descending FlightAware ADS-B
Fri 11:59:46 PM 38.0750 -85.6930 345° North 188 216 2,200 -878 Descending FlightAware ADS-B
Sat 12:00:12 AM 38.0980 -85.7010 345° North 168 193 1,800 -857 Descending FlightAware ADS-B
Sat 12:00:56 AM 38.1290 -85.7110 346° North 132 152 1,200 -711 Descending FlightAware ADS-B
Sat 12:01:28 AM 38.1480 -85.7180 344° North 131 151 900 -621 Descending FlightAware ADS-B
Sat 12:01:54 AM 38.1620 -85.7230 344° North 130 150 600 -692 Descending FlightAware ADS-B
Sat 12:02:36 AM 38.1810 -85.7290 346° North 48 55 -857 Descending FlightAware ADS-B
Sat 12:03:04 AM 38.1840 -85.7320 322° Northwest 32 37  Level FlightAware ADS-B
Sat 12:03:30 AM 38.1830 -85.7330 218° Southwest 17 20  Level FlightAware ADS-B
Sat 12:03:44 AM 38.1810 -85.7330 180° South 21 24  Level FlightAware ADS-B
Sat 12:05:05 AM 38.1780 -85.7370 226° Southwest 20 23  Level FlightAware ADS-B
Sat 12:05:39 AM 38.1800 -85.7410 302° West 23 26  Level FlightAware ADS-B
Sat 12:06:16 AM 38.1790 -85.7440 247° West 18 21  Level FlightAware ADS-B
Sat 12:06:40 AM 38.1760 -85.7430 165° South 26 30  Level FlightAware ADS-B
Sat 12:07:08 AM 38.1730 -85.7420 165° South 22 25  Level FlightAware ADS-B
Sat 12:07:20 AM 38.1720 -85.7410 142° Southeast 15 17  Level FlightAware ADS-B
Sat 12:07:36 AM 38.1710 -85.7400 142° Southeast 16 18  Level FlightAware ADS-B
Sat 12:07:48 AM 38.1710 -85.7390 90° East 26 30  Level FlightAware ADS-B
Sat 12:08:14 AM 38.1700 -85.7360 113° Southeast 26 30  Level FlightAware ADS-B

Login

Don't have an account? Register now (free) for customized features, flight alerts, and more!